createdAt,value
2022-12-08T00:02:26.077Z,82.50
2022-12-08T00:07:48.217Z,82.45
2022-12-08T00:12:51.271Z,82.57
2022-12-08T00:17:54.481Z,82.53
2022-12-08T00:22:57.589Z,82.50
2022-12-08T00:28:00.797Z,82.61
2022-12-08T00:33:03.900Z,82.75
2022-12-08T00:38:07.006Z,82.65
2022-12-08T00:43:10.114Z,82.71
2022-12-08T00:48:13.221Z,82.39
2022-12-08T00:53:16.326Z,82.00
2022-12-08T00:58:19.352Z,82.14
2022-12-08T01:03:22.623Z,82.33
2022-12-08T01:08:25.899Z,81.89
2022-12-08T01:13:28.954Z,81.46
2022-12-08T01:18:32.999Z,81.44
2022-12-08T01:23:36.094Z,81.26
2022-12-08T01:28:40.387Z,81.18
2022-12-08T01:33:44.950Z,81.29
2022-12-08T01:38:48.174Z,81.08
2022-12-08T01:44:08.569Z,81.33
2022-12-08T01:49:19.782Z,81.25
2022-12-08T01:54:28.256Z,81.24
2022-12-08T01:59:37.969Z,81.26
2022-12-08T02:04:41.184Z,81.59
2022-12-08T02:09:45.491Z,81.87
2022-12-08T02:14:48.626Z,82.04
2022-12-08T02:20:22.860Z,82.16
2022-12-08T02:25:31.600Z,82.33
2022-12-08T02:31:07.367Z,82.49
2022-12-08T02:36:36.929Z,82.57
2022-12-08T02:41:54.559Z,82.93
2022-12-08T02:47:12.705Z,83.06
2022-12-08T02:52:15.722Z,83.11
2022-12-08T02:58:02.773Z,83.07
2022-12-08T03:03:17.729Z,83.19
2022-12-08T03:08:42.393Z,83.38
2022-12-08T03:13:51.692Z,83.46
2022-12-08T03:19:17.668Z,83.54
2022-12-08T03:24:23.501Z,83.69
2022-12-08T03:29:27.035Z,84.09
2022-12-08T03:34:31.490Z,84.24
2022-12-08T03:39:34.562Z,84.42
2022-12-08T03:44:37.681Z,84.73
2022-12-08T03:49:41.036Z,85.04
2022-12-08T03:54:44.188Z,85.11
2022-12-08T03:59:47.501Z,85.23
2022-12-08T04:04:51.319Z,85.44
2022-12-08T04:09:54.327Z,85.44
2022-12-08T04:14:57.332Z,85.42
2022-12-08T04:20:00.434Z,85.57
2022-12-08T04:25:04.567Z,85.67
2022-12-08T04:30:08.985Z,85.75
2022-12-08T04:35:12.051Z,85.63
2022-12-08T04:40:15.636Z,85.45
2022-12-08T04:45:18.940Z,85.38
2022-12-08T04:50:22.450Z,85.28
2022-12-08T04:55:25.768Z,85.14
2022-12-08T05:00:28.867Z,84.93
2022-12-08T05:05:31.999Z,84.75
2022-12-08T05:10:35.184Z,84.76
2022-12-08T05:15:38.305Z,84.71
2022-12-08T05:20:41.405Z,84.76
2022-12-08T05:25:44.405Z,84.96
2022-12-08T05:30:48.329Z,85.11
2022-12-08T05:35:51.443Z,85.01
2022-12-08T05:40:54.537Z,85.07
2022-12-08T05:45:57.733Z,85.19
2022-12-08T05:51:02.182Z,84.96
2022-12-08T05:56:05.714Z,84.83
2022-12-08T06:01:30.672Z,84.69
2022-12-08T06:06:35.977Z,84.29
2022-12-08T06:11:39.190Z,84.03
2022-12-08T06:16:42.494Z,83.94
2022-12-08T06:21:45.809Z,83.93
2022-12-08T06:26:49.126Z,83.79
2022-12-08T06:31:53.236Z,83.71
2022-12-08T06:36:56.660Z,83.31
2022-12-08T06:42:18.821Z,82.90
2022-12-08T06:47:26.223Z,82.72
2022-12-08T06:52:29.641Z,82.60
2022-12-08T06:57:32.781Z,82.65
2022-12-08T07:02:35.944Z,82.55
2022-12-08T07:07:39.206Z,82.21
2022-12-08T07:12:42.370Z,81.93
2022-12-08T07:17:45.582Z,81.23
2022-12-08T07:22:53.187Z,80.99
2022-12-08T07:27:56.201Z,81.07
2022-12-08T07:32:59.294Z,80.84
2022-12-08T07:38:03.119Z,80.23
2022-12-08T07:43:06.169Z,78.72
2022-12-08T07:48:09.436Z,78.43
2022-12-08T07:53:13.185Z,76.39
2022-12-08T07:58:16.262Z,77.06
2022-12-08T08:03:19.899Z,77.89
2022-12-08T08:08:23.171Z,78.70
2022-12-08T08:13:26.303Z,79.24
2022-12-08T08:18:29.710Z,78.89
2022-12-08T08:23:33.831Z,78.51
2022-12-08T08:28:37.356Z,77.82
2022-12-08T08:33:40.466Z,77.64
2022-12-08T08:38:44.387Z,77.36
2022-12-08T08:43:47.492Z,77.24
2022-12-08T08:48:50.622Z,76.76
2022-12-08T08:53:53.718Z,76.21
2022-12-08T08:58:56.932Z,76.36
2022-12-08T09:04:00.463Z,75.88
2022-12-08T09:09:04.157Z,75.33
2022-12-08T09:14:07.407Z,75.83
2022-12-08T09:19:11.302Z,75.61
2022-12-08T09:24:17.300Z,75.94
2022-12-08T09:29:20.574Z,76.01
2022-12-08T09:34:23.903Z,75.97
2022-12-08T09:39:27.194Z,75.72
2022-12-08T09:44:35.958Z,75.82
2022-12-08T09:50:07.986Z,76.07
2022-12-08T09:55:49.119Z,75.96
2022-12-08T10:00:52.733Z,76.65
2022-12-08T10:06:18.466Z,76.63
2022-12-08T10:11:41.132Z,77.07
2022-12-08T10:16:52.205Z,77.14
2022-12-08T10:21:58.036Z,76.97
2022-12-08T10:27:03.423Z,77.17
2022-12-08T10:32:23.050Z,77.57
2022-12-08T10:37:26.190Z,77.54
2022-12-08T10:42:46.225Z,77.50
2022-12-08T10:48:00.752Z,77.24
2022-12-08T10:53:21.665Z,76.93
2022-12-08T10:58:43.570Z,77.19
2022-12-08T11:04:01.761Z,77.01
2022-12-08T11:09:24.034Z,77.31
2022-12-08T11:14:44.859Z,77.30
2022-12-08T11:20:21.838Z,77.13
2022-12-08T11:25:27.883Z,77.06
2022-12-08T11:30:54.576Z,76.86
2022-12-08T11:36:09.669Z,76.92
2022-12-08T11:41:20.455Z,76.81
2022-12-08T11:46:35.593Z,76.69
2022-12-08T11:51:47.244Z,76.58
2022-12-08T11:56:57.689Z,76.58
2022-12-08T12:02:04.677Z,76.79
2022-12-08T12:07:40.202Z,76.47
2022-12-08T12:13:12.700Z,76.14
2022-12-08T12:18:34.128Z,76.06
2022-12-08T12:24:03.876Z,76.23
2022-12-08T12:29:20.140Z,76.24
2022-12-08T12:34:48.354Z,76.40
2022-12-08T12:40:07.355Z,76.64
2022-12-08T12:45:33.487Z,76.92
2022-12-08T12:50:52.794Z,77.64
2022-12-08T12:56:03.633Z,78.07
2022-12-08T13:01:12.930Z,78.33
2022-12-08T13:06:43.456Z,79.04
2022-12-08T13:11:55.733Z,80.24
2022-12-08T13:17:02.072Z,81.23
2022-12-08T13:22:46.965Z,82.04
2022-12-08T13:27:55.483Z,82.71
2022-12-08T13:33:18.448Z,83.05
2022-12-08T13:38:30.445Z,83.18
2022-12-08T13:44:02.224Z,83.21
2022-12-08T13:56:05.540Z,83.56
2022-12-08T14:00:18.388Z,83.82
2022-12-08T14:05:47.558Z,84.15
2022-12-08T14:10:59.973Z,84.37
2022-12-08T14:16:03.109Z,84.61
2022-12-08T14:21:20.901Z,84.77
2022-12-08T14:26:25.571Z,84.92
2022-12-08T14:31:29.660Z,84.91
2022-12-08T14:36:34.134Z,84.91
2022-12-08T14:41:37.976Z,84.90
2022-12-08T14:47:10.355Z,85.23
2022-12-08T14:52:14.679Z,85.75
2022-12-08T14:57:19.022Z,86.08
2022-12-08T15:02:32.206Z,86.32
2022-12-08T15:07:53.105Z,86.64
2022-12-08T15:13:26.711Z,86.80
2022-12-08T15:18:39.788Z,86.82
2022-12-08T15:23:50.247Z,86.84
2022-12-08T15:28:55.155Z,87.04
2022-12-08T15:33:58.317Z,87.12
2022-12-08T15:39:01.802Z,87.51
2022-12-08T15:44:05.049Z,87.50
2022-12-08T15:49:18.716Z,87.34
2022-12-08T15:54:23.208Z,87.25
2022-12-08T15:59:26.417Z,87.38
2022-12-08T16:09:53.928Z,87.62
2022-12-08T16:20:28.156Z,87.40
2022-12-08T16:26:16.171Z,87.22
2022-12-08T16:31:10.286Z,87.11
2022-12-08T16:36:16.336Z,87.18
2022-12-08T16:41:38.385Z,87.26
2022-12-08T16:46:41.684Z,87.31
2022-12-08T16:51:44.893Z,87.32
2022-12-08T16:56:47.994Z,87.36
2022-12-08T17:01:51.310Z,87.25
2022-12-08T17:06:54.666Z,87.22
2022-12-08T17:12:03.452Z,87.24
2022-12-08T17:17:07.442Z,87.40
2022-12-08T17:22:10.708Z,87.51
2022-12-08T17:27:14.015Z,87.49
2022-12-08T17:32:18.083Z,87.29
2022-12-08T17:37:21.344Z,87.25
2022-12-08T17:42:26.411Z,87.25
2022-12-08T17:47:29.512Z,87.32
2022-12-08T17:52:32.920Z,87.41
2022-12-08T17:57:36.124Z,87.19
2022-12-08T18:02:39.376Z,86.96
2022-12-08T18:07:45.901Z,86.90
2022-12-08T18:12:49.967Z,86.79
2022-12-08T18:17:53.163Z,86.67
2022-12-08T18:22:57.079Z,86.61
2022-12-08T18:28:00.411Z,86.61
2022-12-08T18:33:06.621Z,86.50
2022-12-08T18:38:09.849Z,86.34
2022-12-08T18:43:13.190Z,86.19
2022-12-08T18:48:16.511Z,86.03
2022-12-08T18:53:19.646Z,85.97
2022-12-08T18:58:23.028Z,86.00
2022-12-08T19:03:26.176Z,86.08
2022-12-08T19:08:31.488Z,86.25
2022-12-08T19:13:35.012Z,86.18
2022-12-08T19:18:39.344Z,86.19
2022-12-08T19:23:42.858Z,86.16
2022-12-08T19:28:46.006Z,86.05
2022-12-08T19:33:49.482Z,86.01
2022-12-08T19:39:11.245Z,86.09
2022-12-08T19:44:34.399Z,86.14
2022-12-08T19:49:38.636Z,86.36
2022-12-08T19:54:41.860Z,86.29
2022-12-08T19:59:45.054Z,86.22
2022-12-08T20:04:48.297Z,86.11
2022-12-08T20:09:51.668Z,85.95
2022-12-08T20:14:54.806Z,85.92
2022-12-08T20:20:00.505Z,85.95
2022-12-08T20:25:06.922Z,86.07
2022-12-08T20:30:16.779Z,86.08
2022-12-08T20:35:22.165Z,86.09
2022-12-08T20:40:25.315Z,86.19
2022-12-08T20:45:28.622Z,86.35
2022-12-08T20:50:31.953Z,86.66
2022-12-08T20:55:38.526Z,87.18
2022-12-08T21:00:43.487Z,87.58
2022-12-08T21:05:52.913Z,87.68
2022-12-08T21:10:57.478Z,87.79
2022-12-08T21:16:01.078Z,87.88
2022-12-08T21:21:09.221Z,87.84
2022-12-08T21:26:26.592Z,87.96
2022-12-08T21:31:32.134Z,88.18
2022-12-08T21:36:35.486Z,88.36
2022-12-08T21:41:58.399Z,88.48
2022-12-08T21:47:02.121Z,88.50
2022-12-08T21:52:05.960Z,88.44
2022-12-08T21:57:09.320Z,88.40
2022-12-08T22:02:19.457Z,88.38
2022-12-08T22:07:25.733Z,88.50
2022-12-08T22:12:29.139Z,88.53
2022-12-08T22:17:36.951Z,88.68
2022-12-08T22:22:41.829Z,88.76
2022-12-08T22:27:45.189Z,88.79
2022-12-08T22:32:48.779Z,88.78
2022-12-08T22:37:52.099Z,88.75
2022-12-08T22:42:55.382Z,88.78
2022-12-08T22:47:58.591Z,88.89
2022-12-08T22:53:02.115Z,89.00
2022-12-08T22:58:05.376Z,89.04
2022-12-08T23:03:08.856Z,88.96
2022-12-08T23:08:16.497Z,88.83
2022-12-08T23:13:21.922Z,88.76
2022-12-08T23:18:25.116Z,88.69
2022-12-08T23:23:28.233Z,88.61
2022-12-08T23:34:03.457Z,88.67
2022-12-08T23:39:07.346Z,88.79
2022-12-08T23:44:12.410Z,88.89
2022-12-08T23:49:16.522Z,88.93
2022-12-08T23:54:19.930Z,88.93
2022-12-08T23:59:23.237Z,88.93
